Time;durP1;ratioP1;P1;durP2;ratioP2;P2;SDS_P1;SDS_P2;PMS_P1;PMS_P2;Temp;Humidity;BMP_temperature;BMP_pressure;BME280_temperature;BME280_humidity;BME280_pressure;Samples;Min_cycle;Max_cycle;Signal;HPM_P1;HPM_P2
2024/03/24 00:01:51;;;;;;;12.73;4.50;;;;;;;;;;5051591;28;20120;-78
2024/03/24 00:04:17;;;;;;;11.77;4.93;;;;;;;;;;5051319;28;20032;-79
2024/03/24 00:06:43;;;;;;;12.10;5.00;;;;;;;;;;5052853;28;20465;-79
2024/03/24 00:09:10;;;;;;;14.13;4.68;;;;;;;;;;5052572;28;20115;-79
2024/03/24 00:11:36;;;;;;;12.90;4.95;;;;;;;;;;5051349;28;20105;-79
2024/03/24 00:14:03;;;;;;;9.43;4.28;;;;;;;;;;5052426;28;20025;-79
2024/03/24 00:16:29;;;;;;;8.18;4.25;;;;;;;;;;5051108;28;20136;-78
2024/03/24 00:18:55;;;;;;;11.82;5.22;;;;;;;;;;5051302;28;20044;-78
2024/03/24 00:21:21;;;;;;;14.68;5.10;;;;;;;;;;5050586;28;20049;-78
2024/03/24 00:23:47;;;;;;;11.02;5.07;;;;;;;;;;5051280;28;20211;-78
2024/03/24 00:26:13;;;;;;;12.43;5.40;;;;;;;;;;5050962;28;20033;-78
2024/03/24 00:28:39;;;;;;;9.85;5.50;;;;;;;;;;5051059;28;20028;-78
2024/03/24 00:31:05;;;;;;;13.07;6.00;;;;;;;;;;5052509;28;20048;-78
2024/03/24 00:33:31;;;;;;;16.80;5.55;;;;;;;;;;5050863;28;20032;-79
2024/03/24 00:35:58;;;;;;;10.07;5.32;;;;;;;;;;5051067;28;20029;-80
2024/03/24 00:38:24;;;;;;;10.32;5.15;;;;;;;;;;5052055;28;20108;-80
2024/03/24 00:40:50;;;;;;;13.25;6.53;;;;;;;;;;5052282;28;20044;-80
2024/03/24 00:43:16;;;;;;;12.40;5.90;;;;;;;;;;5050758;28;20430;-80
2024/03/24 00:45:42;;;;;;;13.05;5.40;;;;;;;;;;5050831;28;20029;-80
2024/03/24 00:48:08;;;;;;;18.80;6.93;;;;;;;;;;5050905;28;20407;-79
2024/03/24 00:50:34;;;;;;;11.98;5.68;;;;;;;;;;5050426;28;20048;-78
2024/03/24 00:53:00;;;;;;;12.25;5.50;;;;;;;;;;5050923;28;20029;-77
2024/03/24 00:55:26;;;;;;;18.83;7.78;;;;;;;;;;5052012;28;20032;-78
2024/03/24 00:57:52;;;;;;;13.82;5.57;;;;;;;;;;5050723;28;20021;-78
2024/03/24 01:00:19;;;;;;;20.33;7.25;;;;;;;;;;5050548;28;20025;-78
2024/03/24 01:02:51;;;;;;;15.20;7.28;;;;;;;;;;5052053;28;20067;-78
2024/03/24 01:05:17;;;;;;;16.92;7.80;;;;;;;;;;5051586;28;20492;-79
2024/03/24 01:07:47;;;;;;;18.33;8.93;;;;;;;;;;5050699;28;20021;-78
2024/03/24 01:10:13;;;;;;;15.82;6.95;;;;;;;;;;5051811;28;20021;-79
2024/03/24 01:12:39;;;;;;;14.73;8.02;;;;;;;;;;5050598;28;20032;-79
2024/03/24 01:15:05;;;;;;;17.38;8.32;;;;;;;;;;5050756;28;20024;-77
2024/03/24 01:17:31;;;;;;;17.25;9.20;;;;;;;;;;5051453;28;20496;-77
2024/03/24 01:19:57;;;;;;;17.13;7.90;;;;;;;;;;5050194;28;20152;-79
2024/03/24 01:22:23;;;;;;;14.32;7.72;;;;;;;;;;5050357;28;20355;-80
2024/03/24 01:24:49;;;;;;;18.35;9.40;;;;;;;;;;5050693;28;20028;-80
2024/03/24 01:27:16;;;;;;;16.38;9.70;;;;;;;;;;5050407;28;20025;-78
2024/03/24 01:29:42;;;;;;;17.35;9.05;;;;;;;;;;5051819;28;20025;-79
2024/03/24 01:32:08;;;;;;;14.73;9.07;;;;;;;;;;5050472;28;20029;-80
2024/03/24 01:34:34;;;;;;;19.60;9.93;;;;;;;;;;5053160;28;20032;-80
2024/03/24 01:37:00;;;;;;;16.20;8.02;;;;;;;;;;5055961;28;20048;-79
2024/03/24 01:39:26;;;;;;;14.85;8.77;;;;;;;;;;5053985;28;20384;-79
2024/03/24 01:41:55;;;;;;;12.05;8.63;;;;;;;;;;5054118;28;20457;-79
2024/03/24 01:44:21;;;;;;;15.15;9.57;;;;;;;;;;5055192;28;20020;-79
2024/03/24 01:46:47;;;;;;;12.93;8.85;;;;;;;;;;5054189;28;20021;-79
2024/03/24 01:49:13;;;;;;;22.35;9.80;;;;;;;;;;5053905;28;20384;-79
2024/03/24 01:51:39;;;;;;;20.77;10.43;;;;;;;;;;5055379;28;20029;-80
2024/03/24 01:54:07;;;;;;;15.25;10.95;;;;;;;;;;5054100;28;20079;-79
2024/03/24 01:56:33;;;;;;;14.07;10.45;;;;;;;;;;5054791;28;20392;-79
2024/03/24 01:58:59;;;;;;;16.60;10.55;;;;;;;;;;5055303;28;20028;-80
2024/03/24 02:01:25;;;;;;;21.77;10.57;;;;;;;;;;5055095;28;20376;-79
2024/03/24 02:03:51;;;;;;;15.93;10.07;;;;;;;;;;5055201;28;20112;-78
2024/03/24 02:06:17;;;;;;;18.33;9.85;;;;;;;;;;5053633;28;20083;-79
2024/03/24 02:08:43;;;;;;;20.40;10.18;;;;;;;;;;5053710;28;20475;-79
2024/03/24 02:11:09;;;;;;;22.17;10.43;;;;;;;;;;5053631;28;20067;-79
2024/03/24 02:13:35;;;;;;;18.95;10.40;;;;;;;;;;5053454;28;20159;-78
2024/03/24 02:16:01;;;;;;;19.20;9.75;;;;;;;;;;5053687;28;20028;-78
2024/03/24 02:18:27;;;;;;;19.15;10.90;;;;;;;;;;5054625;28;20029;-77
2024/03/24 02:20:53;;;;;;;13.38;9.32;;;;;;;;;;5053039;28;20106;-77
2024/03/24 02:23:19;;;;;;;20.25;11.15;;;;;;;;;;5053254;28;20119;-77
2024/03/24 02:25:45;;;;;;;20.05;10.65;;;;;;;;;;5053441;28;20439;-77
2024/03/24 02:28:11;;;;;;;15.20;11.00;;;;;;;;;;5054784;28;20056;-77
2024/03/24 02:30:37;;;;;;;18.17;11.10;;;;;;;;;;5053177;28;20029;-77
2024/03/24 02:33:03;;;;;;;14.90;9.70;;;;;;;;;;5053392;28;20024;-77
2024/03/24 02:35:29;;;;;;;18.73;10.25;;;;;;;;;;5053066;28;20032;-77
2024/03/24 02:37:55;;;;;;;20.50;11.02;;;;;;;;;;5053203;28;20457;-77
2024/03/24 02:40:22;;;;;;;18.13;10.02;;;;;;;;;;5053027;28;20112;-78
2024/03/24 02:42:48;;;;;;;23.48;10.25;;;;;;;;;;5053054;28;20033;-78
2024/03/24 02:45:14;;;;;;;18.33;10.50;;;;;;;;;;5052836;28;20067;-76
2024/03/24 02:47:40;;;;;;;12.65;6.35;;;;;;;;;;5053072;28;20025;-79
2024/03/24 02:50:06;;;;;;;9.15;4.85;;;;;;;;;;5052955;28;20112;-77
2024/03/24 02:52:33;;;;;;;7.63;3.38;;;;;;;;;;5052713;28;20021;-77
2024/03/24 02:54:59;;;;;;;9.30;3.97;;;;;;;;;;5052932;28;20036;-77
2024/03/24 02:57:25;;;;;;;14.77;6.13;;;;;;;;;;5052648;28;20033;-77
2024/03/24 02:59:51;;;;;;;10.13;5.28;;;;;;;;;;5052757;28;20125;-77
2024/03/24 03:02:17;;;;;;;10.95;4.53;;;;;;;;;;5052757;28;20119;-77
2024/03/24 03:04:43;;;;;;;9.05;4.78;;;;;;;;;;5054258;28;20507;-77
2024/03/24 03:07:10;;;;;;;10.18;5.28;;;;;;;;;;5052753;28;20028;-79
2024/03/24 03:09:36;;;;;;;13.27;5.93;;;;;;;;;;5053735;28;20067;-77
2024/03/24 03:12:02;;;;;;;17.42;8.45;;;;;;;;;;5054216;28;20071;-77
2024/03/24 03:14:31;;;;;;;14.30;7.80;;;;;;;;;;5053438;28;20504;-77
2024/03/24 03:16:57;;;;;;;16.77;8.98;;;;;;;;;;5052587;28;20021;-77
2024/03/24 03:19:23;;;;;;;18.23;10.18;;;;;;;;;;5053127;28;20127;-78
2024/03/24 03:21:49;;;;;;;18.45;9.85;;;;;;;;;;5054141;28;20048;-78
2024/03/24 03:24:17;;;;;;;17.35;9.20;;;;;;;;;;5053823;28;20021;-79
2024/03/24 03:26:43;;;;;;;14.70;7.03;;;;;;;;;;5052581;28;20438;-79
2024/03/24 03:29:09;;;;;;;13.40;7.57;;;;;;;;;;5052379;28;20028;-79
2024/03/24 03:31:35;;;;;;;13.88;7.68;;;;;;;;;;5053059;28;20469;-78
2024/03/24 03:34:01;;;;;;;14.52;7.85;;;;;;;;;;5053878;28;20078;-77
2024/03/24 03:36:27;;;;;;;12.07;7.30;;;;;;;;;;5053547;28;20017;-78
2024/03/24 03:38:53;;;;;;;21.25;8.50;;;;;;;;;;5052336;28;20052;-78
2024/03/24 03:41:19;;;;;;;12.88;8.15;;;;;;;;;;5053203;28;20465;-78
2024/03/24 03:43:45;;;;;;;14.48;7.25;;;;;;;;;;5052063;28;20025;-76
2024/03/24 03:46:11;;;;;;;14.27;6.65;;;;;;;;;;5051848;28;20017;-78
2024/03/24 03:48:42;;;;;;;15.43;7.32;;;;;;;;;;5051739;28;20358;-78
2024/03/24 03:51:17;;;;;;;13.10;5.97;;;;;;;;;;5051607;28;20025;-77
2024/03/24 03:53:43;;;;;;;10.70;4.53;;;;;;;;;;5051644;28;20055;-77
2024/03/24 03:56:09;;;;;;;16.58;6.30;;;;;;;;;;5051403;28;20024;-77
2024/03/24 03:58:35;;;;;;;11.48;4.13;;;;;;;;;;5051597;28;20075;-77
2024/03/24 04:01:01;;;;;;;7.53;3.80;;;;;;;;;;5051869;28;20025;-77
2024/03/24 04:03:27;;;;;;;9.48;3.42;;;;;;;;;;5051553;28;20033;-78
2024/03/24 04:05:58;;;;;;;5.57;2.30;;;;;;;;;;5052999;28;20044;-77
2024/03/24 04:08:24;;;;;;;3.63;1.40;;;;;;;;;;5051414;28;20025;-78
2024/03/24 04:10:50;;;;;;;4.25;1.73;;;;;;;;;;5051283;28;20527;-78
2024/03/24 04:13:16;;;;;;;3.53;1.48;;;;;;;;;;5052840;28;20041;-77
2024/03/24 04:15:42;;;;;;;4.38;1.77;;;;;;;;;;5051222;28;20083;-77
2024/03/24 04:18:09;;;;;;;3.95;1.30;;;;;;;;;;5051437;28;20033;-77
2024/03/24 04:20:38;;;;;;;5.13;1.83;;;;;;;;;;5050972;28;20053;-78
2024/03/24 04:23:04;;;;;;;4.45;1.70;;;;;;;;;;5052384;28;20106;-77
2024/03/24 04:25:31;;;;;;;5.60;1.73;;;;;;;;;;5051042;28;20025;-77
2024/03/24 04:27:57;;;;;;;6.40;1.70;;;;;;;;;;5051277;28;20511;-78
2024/03/24 04:30:23;;;;;;;5.15;1.67;;;;;;;;;;5052538;28;20017;-77
2024/03/24 04:32:49;;;;;;;7.32;2.30;;;;;;;;;;5051141;28;20103;-77
2024/03/24 04:35:15;;;;;;;7.95;2.42;;;;;;;;;;5051137;28;20427;-77
2024/03/24 04:37:41;;;;;;;5.32;1.88;;;;;;;;;;5050871;28;20021;-77
2024/03/24 04:40:08;;;;;;;5.18;2.05;;;;;;;;;;5050977;28;20504;-78
2024/03/24 04:42:35;;;;;;;6.32;1.88;;;;;;;;;;5052116;28;20048;-78
2024/03/24 04:45:01;;;;;;;4.55;1.92;;;;;;;;;;5050882;28;20388;-78
2024/03/24 04:47:28;;;;;;;3.72;1.90;;;;;;;;;;5050862;28;20021;-78
2024/03/24 04:49:54;;;;;;;4.38;1.83;;;;;;;;;;5052013;28;20017;-78
2024/03/24 04:52:20;;;;;;;4.82;2.30;;;;;;;;;;5051095;28;20028;-77
2024/03/24 04:54:46;;;;;;;8.52;2.90;;;;;;;;;;5052180;28;20067;-77
2024/03/24 04:57:12;;;;;;;5.93;2.20;;;;;;;;;;5050838;28;20021;-77
2024/03/24 04:59:38;;;;;;;9.35;2.95;;;;;;;;;;5051767;28;20436;-76
2024/03/24 05:02:04;;;;;;;6.97;2.50;;;;;;;;;;5050834;28;20055;-76
2024/03/24 05:04:30;;;;;;;5.18;2.13;;;;;;;;;;5052154;28;20071;-78
2024/03/24 05:06:59;;;;;;;7.70;2.97;;;;;;;;;;5050730;28;20036;-77
2024/03/24 05:09:25;;;;;;;6.70;2.40;;;;;;;;;;5053404;28;20051;-78
2024/03/24 05:11:51;;;;;;;6.97;2.58;;;;;;;;;;5056288;28;20222;-78
2024/03/24 05:14:17;;;;;;;5.03;2.17;;;;;;;;;;5056501;28;20040;-78
2024/03/24 05:16:43;;;;;;;4.97;2.47;;;;;;;;;;5055886;28;20053;-78
2024/03/24 05:19:09;;;;;;;7.30;2.42;;;;;;;;;;5054619;28;20098;-79
2024/03/24 05:21:37;;;;;;;7.18;2.47;;;;;;;;;;5055853;28;20064;-79
2024/03/24 05:24:05;;;;;;;7.47;2.22;;;;;;;;;;5054756;28;20120;-78
2024/03/24 05:26:31;;;;;;;6.22;2.55;;;;;;;;;;5054424;28;20021;-77
2024/03/24 05:28:57;;;;;;;5.30;2.65;;;;;;;;;;5054516;28;20036;-77
2024/03/24 05:31:23;;;;;;;5.20;2.03;;;;;;;;;;5055898;28;20025;-78
2024/03/24 05:33:49;;;;;;;6.30;2.00;;;;;;;;;;5054360;28;20029;-78
2024/03/24 05:36:15;;;;;;;5.82;2.10;;;;;;;;;;5054400;28;20492;-78
2024/03/24 05:38:42;;;;;;;7.55;2.38;;;;;;;;;;5054026;28;20029;-78
2024/03/24 05:41:09;;;;;;;8.10;2.95;;;;;;;;;;5056060;28;20028;-78
2024/03/24 05:43:36;;;;;;;8.07;2.25;;;;;;;;;;5054698;28;20264;-78
2024/03/24 05:46:04;;;;;;;8.00;2.30;;;;;;;;;;5054507;28;20041;-78
2024/03/24 05:48:30;;;;;;;9.15;2.30;;;;;;;;;;5053967;28;20095;-78
2024/03/24 05:51:00;;;;;;;8.07;2.45;;;;;;;;;;5055492;28;20075;-77
2024/03/24 05:53:26;;;;;;;9.32;2.30;;;;;;;;;;5055236;28;20025;-78
2024/03/24 05:55:52;;;;;;;5.72;2.53;;;;;;;;;;5054150;28;20480;-77
2024/03/24 05:58:21;;;;;;;8.02;2.40;;;;;;;;;;5054227;28;20040;-77
2024/03/24 06:00:47;;;;;;;7.88;2.75;;;;;;;;;;5054314;28;20029;-76
2024/03/24 06:03:13;;;;;;;5.25;2.30;;;;;;;;;;5055467;28;20032;-76
2024/03/24 06:05:40;;;;;;;8.57;2.80;;;;;;;;;;5054918;28;20021;-77
2024/03/24 06:08:08;;;;;;;12.40;5.03;;;;;;;;;;5054033;28;20109;-77
2024/03/24 06:10:34;;;;;;;9.98;2.55;;;;;;;;;;5055399;28;20033;-76
2024/03/24 06:13:00;;;;;;;6.35;2.85;;;;;;;;;;5054065;28;20021;-77
2024/03/24 06:15:26;;;;;;;10.20;3.05;;;;;;;;;;5053644;28;20021;-77
2024/03/24 06:17:52;;;;;;;11.18;2.92;;;;;;;;;;5054934;28;20385;-78
2024/03/24 06:20:18;;;;;;;9.95;3.22;;;;;;;;;;5054018;28;20439;-77
2024/03/24 06:22:44;;;;;;;7.32;2.50;;;;;;;;;;5053151;28;20067;-77
2024/03/24 06:25:10;;;;;;;8.40;2.88;;;;;;;;;;5053291;28;20404;-78
2024/03/24 06:27:36;;;;;;;9.80;3.65;;;;;;;;;;5054571;28;20053;-78
2024/03/24 06:30:03;;;;;;;7.97;2.85;;;;;;;;;;5053539;28;20063;-78
2024/03/24 06:32:29;;;;;;;11.43;2.53;;;;;;;;;;5053175;28;20067;-78
2024/03/24 06:34:55;;;;;;;7.20;1.83;;;;;;;;;;5053401;28;20112;-77
2024/03/24 06:37:21;;;;;;;6.95;2.25;;;;;;;;;;5053296;28;20116;-79
2024/03/24 06:39:49;;;;;;;8.68;3.40;;;;;;;;;;5053550;28;20029;-78
2024/03/24 06:42:15;;;;;;;9.68;3.17;;;;;;;;;;5054265;28;20054;-78
2024/03/24 06:44:42;;;;;;;9.07;2.92;;;;;;;;;;5054960;28;20029;-78
2024/03/24 06:47:08;;;;;;;13.10;3.95;;;;;;;;;;5053728;28;20036;-78
2024/03/24 06:49:34;;;;;;;8.90;2.63;;;;;;;;;;5055541;28;20025;-78
2024/03/24 06:52:00;;;;;;;8.43;3.08;;;;;;;;;;5053877;28;20029;-78
2024/03/24 06:54:27;;;;;;;12.32;4.07;;;;;;;;;;5053848;28;20025;-78
2024/03/24 06:56:53;;;;;;;15.18;3.63;;;;;;;;;;5053069;28;20028;-78
2024/03/24 06:59:19;;;;;;;9.48;2.88;;;;;;;;;;5052791;28;20428;-78
2024/03/24 07:01:45;;;;;;;8.10;3.50;;;;;;;;;;5052645;28;20033;-77
2024/03/24 07:04:11;;;;;;;16.23;4.07;;;;;;;;;;5052846;28;20021;-76
2024/03/24 07:06:37;;;;;;;15.13;4.68;;;;;;;;;;5052513;28;20029;-77
2024/03/24 07:09:03;;;;;;;9.25;3.55;;;;;;;;;;5054000;28;20036;-77
2024/03/24 07:11:29;;;;;;;8.35;3.35;;;;;;;;;;5053668;28;20025;-78
2024/03/24 07:13:55;;;;;;;14.23;3.80;;;;;;;;;;5052617;28;20033;-76
2024/03/24 07:16:21;;;;;;;13.10;3.30;;;;;;;;;;5052340;28;20050;-76
2024/03/24 07:18:47;;;;;;;10.07;3.25;;;;;;;;;;5052238;28;20040;-76
2024/03/24 07:21:13;;;;;;;10.68;2.60;;;;;;;;;;5053937;28;20049;-76
2024/03/24 07:23:39;;;;;;;5.05;2.35;;;;;;;;;;5052255;28;20400;-77
2024/03/24 07:26:05;;;;;;;13.65;3.80;;;;;;;;;;5052504;28;20025;-75
2024/03/24 07:28:31;;;;;;;6.40;2.03;;;;;;;;;;5051844;28;20037;-76
2024/03/24 07:30:57;;;;;;;10.20;2.58;;;;;;;;;;5051530;28;20036;-77
2024/03/24 07:33:23;;;;;;;5.80;1.83;;;;;;;;;;5052261;28;20029;-77
2024/03/24 07:35:49;;;;;;;7.57;2.95;;;;;;;;;;5051985;28;20369;-76
2024/03/24 07:38:16;;;;;;;7.30;2.47;;;;;;;;;;5052122;28;20385;-76
2024/03/24 07:40:43;;;;;;;14.02;3.00;;;;;;;;;;5052875;28;20025;-76
2024/03/24 07:43:11;;;;;;;6.20;2.42;;;;;;;;;;5053366;28;20025;-74
2024/03/24 07:45:38;;;;;;;10.52;3.17;;;;;;;;;;5052743;28;20417;-74
2024/03/24 07:48:04;;;;;;;11.73;2.42;;;;;;;;;;5051943;28;20361;-74
2024/03/24 07:50:30;;;;;;;9.77;2.55;;;;;;;;;;5051646;28;20025;-74
2024/03/24 07:52:56;;;;;;;11.35;2.78;;;;;;;;;;5051874;28;20029;-74
2024/03/24 07:55:22;;;;;;;12.50;3.10;;;;;;;;;;5051805;28;20366;-75
2024/03/24 07:57:48;;;;;;;6.68;2.20;;;;;;;;;;5051626;28;21140;-75
2024/03/24 08:00:14;;;;;;;6.35;2.38;;;;;;;;;;5053019;28;20040;-74
2024/03/24 08:02:40;;;;;;;7.30;2.33;;;;;;;;;;5052997;28;20125;-75
2024/03/24 08:05:06;;;;;;;11.73;3.33;;;;;;;;;;5051615;28;20029;-74
2024/03/24 08:07:33;;;;;;;9.00;2.60;;;;;;;;;;5052346;28;20028;-74
2024/03/24 08:09:59;;;;;;;11.60;3.15;;;;;;;;;;5053124;28;20036;-75
2024/03/24 08:12:25;;;;;;;9.43;2.50;;;;;;;;;;5051525;28;20029;-75
2024/03/24 08:14:51;;;;;;;12.10;2.97;;;;;;;;;;5051133;28;20029;-75
2024/03/24 08:17:17;;;;;;;8.15;2.85;;;;;;;;;;5052711;28;20068;-75
2024/03/24 08:19:44;;;;;;;9.63;3.63;;;;;;;;;;5052185;28;20126;-75
2024/03/24 08:22:10;;;;;;;7.35;2.60;;;;;;;;;;5052381;28;20060;-75
2024/03/24 08:24:36;;;;;;;14.25;3.53;;;;;;;;;;5052625;28;20052;-76
2024/03/24 08:27:02;;;;;;;10.52;3.30;;;;;;;;;;5051214;28;20025;-75
2024/03/24 08:29:28;;;;;;;12.23;3.50;;;;;;;;;;5052573;28;20035;-75
2024/03/24 08:31:54;;;;;;;11.25;3.28;;;;;;;;;;5050988;28;20021;-75
2024/03/24 08:34:20;;;;;;;14.90;3.67;;;;;;;;;;5051099;28;20431;-75
2024/03/24 08:36:46;;;;;;;11.35;2.83;;;;;;;;;;5052218;28;20021;-75
2024/03/24 08:39:12;;;;;;;9.50;2.85;;;;;;;;;;5052470;28;20029;-75
2024/03/24 08:41:39;;;;;;;8.05;2.35;;;;;;;;;;5050731;28;20059;-75
2024/03/24 08:44:05;;;;;;;10.73;2.22;;;;;;;;;;5050907;28;20061;-74
2024/03/24 08:46:31;;;;;;;7.38;2.17;;;;;;;;;;5050643;28;20025;-75
2024/03/24 08:48:57;;;;;;;9.38;2.72;;;;;;;;;;5050887;28;20025;-75
2024/03/24 08:51:23;;;;;;;11.15;3.47;;;;;;;;;;5052291;28;20074;-75
2024/03/24 08:53:49;;;;;;;11.35;4.45;;;;;;;;;;5050636;28;20021;-76
2024/03/24 08:56:15;;;;;;;11.73;3.55;;;;;;;;;;5051948;28;20508;-77
2024/03/24 08:58:41;;;;;;;7.25;2.65;;;;;;;;;;5051889;28;20480;-77
2024/03/24 09:01:08;;;;;;;12.98;2.80;;;;;;;;;;5050803;28;20479;-77
2024/03/24 09:03:34;;;;;;;8.80;2.97;;;;;;;;;;5050386;28;20021;-77
2024/03/24 09:06:00;;;;;;;11.82;3.28;;;;;;;;;;5050755;28;20028;-77
2024/03/24 09:08:26;;;;;;;8.40;3.45;;;;;;;;;;5050614;28;20032;-77
2024/03/24 09:10:52;;;;;;;8.95;3.22;;;;;;;;;;5050280;28;20365;-76
2024/03/24 09:13:18;;;;;;;11.30;2.97;;;;;;;;;;5050528;28;20029;-76
2024/03/24 09:15:44;;;;;;;10.98;2.95;;;;;;;;;;5050329;28;20311;-76
2024/03/24 09:18:10;;;;;;;8.35;2.53;;;;;;;;;;5050365;28;20103;-76
2024/03/24 09:20:36;;;;;;;6.95;2.28;;;;;;;;;;5049865;28;20477;-76
2024/03/24 09:23:03;;;;;;;12.90;2.50;;;;;;;;;;5050181;28;20024;-75
2024/03/24 09:25:31;;;;;;;12.20;3.15;;;;;;;;;;5050477;28;20025;-75
2024/03/24 09:27:57;;;;;;;10.23;2.17;;;;;;;;;;5051633;28;20021;-76
2024/03/24 09:30:23;;;;;;;7.13;1.60;;;;;;;;;;5052026;28;20025;-75
2024/03/24 09:32:49;;;;;;;7.53;1.95;;;;;;;;;;5051481;28;20028;-76
2024/03/24 09:35:15;;;;;;;7.43;1.52;;;;;;;;;;5051795;28;20021;-75
2024/03/24 09:37:41;;;;;;;6.85;1.92;;;;;;;;;;5050272;28;20159;-75
2024/03/24 09:40:07;;;;;;;8.55;2.00;;;;;;;;;;5050384;28;20120;-75
2024/03/24 09:42:35;;;;;;;8.48;2.13;;;;;;;;;;5050148;28;20032;-75
2024/03/24 09:45:03;;;;;;;10.60;2.50;;;;;;;;;;5050256;28;20025;-75
2024/03/24 09:47:30;;;;;;;5.07;1.95;;;;;;;;;;5050303;28;20531;-76
2024/03/24 09:49:57;;;;;;;10.13;1.80;;;;;;;;;;5051997;28;20040;-75
2024/03/24 09:52:23;;;;;;;5.97;2.15;;;;;;;;;;5051636;28;20382;-76
2024/03/24 09:54:49;;;;;;;8.02;2.08;;;;;;;;;;5051247;28;20070;-75
2024/03/24 09:57:16;;;;;;;8.45;1.80;;;;;;;;;;5054054;28;20028;-75
2024/03/24 09:59:43;;;;;;;11.63;2.65;;;;;;;;;;5053667;28;20519;-75
2024/03/24 10:02:10;;;;;;;6.10;1.65;;;;;;;;;;5055436;28;20476;-75
2024/03/24 10:04:37;;;;;;;6.15;1.60;;;;;;;;;;5055043;28;20033;-75
2024/03/24 10:07:03;;;;;;;5.05;1.48;;;;;;;;;;5054972;28;20021;-75
2024/03/24 10:09:29;;;;;;;9.80;1.58;;;;;;;;;;5053871;28;20111;-75
2024/03/24 10:11:55;;;;;;;7.07;1.95;;;;;;;;;;5053625;28;20392;-76
2024/03/24 10:14:25;;;;;;;9.35;1.55;;;;;;;;;;5055082;28;20384;-76
2024/03/24 10:16:51;;;;;;;7.13;1.90;;;;;;;;;;5053483;28;20075;-75
2024/03/24 10:19:17;;;;;;;7.97;1.67;;;;;;;;;;5053505;28;20033;-76
2024/03/24 10:21:43;;;;;;;4.72;1.30;;;;;;;;;;5053469;28;20021;-76
2024/03/24 10:24:10;;;;;;;7.57;1.98;;;;;;;;;;5054792;28;20381;-76
2024/03/24 10:26:36;;;;;;;5.30;1.60;;;;;;;;;;5053192;28;20033;-76
2024/03/24 10:29:06;;;;;;;3.55;1.25;;;;;;;;;;5054754;28;20028;-75
2024/03/24 10:31:33;;;;;;;5.75;1.52;;;;;;;;;;5053365;28;20044;-76
2024/03/24 10:33:59;;;;;;;6.38;1.42;;;;;;;;;;5054748;28;20024;-76
2024/03/24 10:36:25;;;;;;;5.82;1.30;;;;;;;;;;5054614;28;20032;-76
2024/03/24 10:38:51;;;;;;;7.32;1.42;;;;;;;;;;5053049;28;20029;-76
2024/03/24 10:41:18;;;;;;;6.68;1.80;;;;;;;;;;5054699;28;20056;-76
2024/03/24 10:43:47;;;;;;;5.43;1.95;;;;;;;;;;5054303;28;20021;-76
2024/03/24 10:46:14;;;;;;;6.43;1.38;;;;;;;;;;5054616;28;20025;-76
2024/03/24 10:48:46;;;;;;;7.32;1.20;;;;;;;;;;5052946;28;20522;-76
2024/03/24 10:51:13;;;;;;;7.68;1.58;;;;;;;;;;5053170;28;20025;-76
2024/03/24 10:53:39;;;;;;;8.77;2.10;;;;;;;;;;5052866;28;20025;-76
2024/03/24 10:56:05;;;;;;;8.25;2.33;;;;;;;;;;5053118;28;20465;-76
2024/03/24 10:58:33;;;;;;;9.63;1.88;;;;;;;;;;5054178;28;20021;-76
2024/03/24 11:00:59;;;;;;;8.25;1.88;;;;;;;;;;5054109;28;20079;-76
2024/03/24 11:03:26;;;;;;;6.40;1.83;;;;;;;;;;5052963;28;20508;-76
2024/03/24 11:05:55;;;;;;;5.63;1.60;;;;;;;;;;5051408;28;20028;-76
2024/03/24 11:08:23;;;;;;;8.90;2.45;;;;;;;;;;5052862;28;20053;-76
2024/03/24 11:10:50;;;;;;;9.82;2.72;;;;;;;;;;5053765;28;20464;-76
2024/03/24 11:13:18;;;;;;;4.90;1.80;;;;;;;;;;5054011;28;20100;-76
2024/03/24 11:15:46;;;;;;;12.77;2.85;;;;;;;;;;5052489;28;20025;-77
2024/03/24 11:18:18;;;;;;;9.68;2.30;;;;;;;;;;5052569;28;20025;-77
2024/03/24 11:20:45;;;;;;;11.60;2.20;;;;;;;;;;5052090;28;20388;-76
2024/03/24 11:23:19;;;;;;;9.07;1.88;;;;;;;;;;5052417;28;20043;-75
2024/03/24 11:25:48;;;;;;;10.15;2.40;;;;;;;;;;5052221;28;20028;-77
2024/03/24 11:28:34;;;;;;;7.68;1.67;;;;;;;;;;5052821;28;20135;-76
2024/03/24 11:31:00;;;;;;;8.48;1.83;;;;;;;;;;5052050;28;20416;-76
2024/03/24 11:33:26;;;;;;;9.38;1.83;;;;;;;;;;5052274;28;20127;-79
2024/03/24 11:35:52;;;;;;;7.53;1.90;;;;;;;;;;5052038;28;20025;-78
2024/03/24 11:38:19;;;;;;;12.00;2.55;;;;;;;;;;5052203;28;20040;-79
2024/03/24 11:40:45;;;;;;;11.50;2.40;;;;;;;;;;5051980;28;20051;-78
2024/03/24 11:43:12;;;;;;;11.52;2.50;;;;;;;;;;5053464;28;20028;-77
2024/03/24 11:45:42;;;;;;;10.63;2.35;;;;;;;;;;5053244;28;20416;-77
2024/03/24 11:48:17;;;;;;;9.80;2.13;;;;;;;;;;5052036;28;20447;-78
2024/03/24 11:50:44;;;;;;;15.20;2.42;;;;;;;;;;5051765;28;20029;-78
2024/03/24 11:53:10;;;;;;;7.10;2.95;;;;;;;;;;5051934;28;20033;-78
2024/03/24 11:55:40;;;;;;;10.32;2.40;;;;;;;;;;5051866;28;20419;-78
2024/03/24 11:58:06;;;;;;;12.82;2.53;;;;;;;;;;5051736;28;20029;-78
2024/03/24 12:00:32;;;;;;;13.27;3.75;;;;;;;;;;5051722;28;20128;-78
2024/03/24 12:02:59;;;;;;;10.48;2.65;;;;;;;;;;5052831;28;20025;-78
2024/03/24 12:05:25;;;;;;;8.93;2.10;;;;;;;;;;5051741;28;20388;-78
2024/03/24 12:07:52;;;;;;;11.00;2.83;;;;;;;;;;5052461;28;20526;-78
2024/03/24 12:10:18;;;;;;;11.30;1.80;;;;;;;;;;5051783;28;20029;-77
2024/03/24 12:12:44;;;;;;;10.75;1.90;;;;;;;;;;5051271;28;20021;-78
2024/03/24 12:15:10;;;;;;;6.88;2.25;;;;;;;;;;5053073;28;20372;-78
2024/03/24 12:17:37;;;;;;;9.70;2.60;;;;;;;;;;5052443;28;20024;-77
2024/03/24 12:20:04;;;;;;;11.00;2.58;;;;;;;;;;5050894;28;20386;-77
2024/03/24 12:22:30;;;;;;;8.13;1.95;;;;;;;;;;5052632;28;20024;-77
2024/03/24 12:24:56;;;;;;;6.30;1.70;;;;;;;;;;5051093;28;20457;-78
2024/03/24 12:27:22;;;;;;;8.00;1.75;;;;;;;;;;5052545;28;20479;-78
2024/03/24 12:29:52;;;;;;;6.82;1.52;;;;;;;;;;5052249;28;20021;-78
2024/03/24 12:32:18;;;;;;;8.70;2.22;;;;;;;;;;5052560;28;20165;-78
2024/03/24 12:34:47;;;;;;;9.35;2.45;;;;;;;;;;5050834;28;20048;-78
2024/03/24 12:37:13;;;;;;;12.25;2.25;;;;;;;;;;5051172;28;20464;-78
2024/03/24 12:39:39;;;;;;;6.75;1.98;;;;;;;;;;5052287;28;20028;-78
2024/03/24 12:42:12;;;;;;;7.55;1.63;;;;;;;;;;5052192;28;20021;-79
2024/03/24 12:44:38;;;;;;;10.25;2.63;;;;;;;;;;5050622;28;20021;-78
2024/03/24 12:47:17;;;;;;;8.80;1.67;;;;;;;;;;5050809;28;20475;-79
2024/03/24 12:49:44;;;;;;;7.32;1.67;;;;;;;;;;5050746;28;20025;-79
2024/03/24 12:52:10;;;;;;;7.80;1.58;;;;;;;;;;5051011;28;20028;-79
2024/03/24 12:54:37;;;;;;;6.63;1.45;;;;;;;;;;5052345;28;20135;-78
2024/03/24 12:57:03;;;;;;;8.40;1.42;;;;;;;;;;5052014;28;20469;-79
2024/03/24 12:59:29;;;;;;;9.25;1.77;;;;;;;;;;5050763;28;20031;-79
2024/03/24 13:01:55;;;;;;;11.65;2.42;;;;;;;;;;5050785;28;20123;-82
2024/03/24 13:04:21;;;;;;;10.52;3.97;;;;;;;;;;5052061;28;20032;-80
2024/03/24 13:06:51;;;;;;;15.45;5.55;;;;;;;;;;5050476;28;20021;-82
2024/03/24 13:09:18;;;;;;;17.13;5.22;;;;;;;;;;5052363;28;20028;-80
2024/03/24 13:11:44;;;;;;;12.23;2.50;;;;;;;;;;5050798;28;20025;-81
2024/03/24 13:14:11;;;;;;;10.35;2.67;;;;;;;;;;5050605;28;20076;-82
2024/03/24 13:16:40;;;;;;;13.60;4.78;;;;;;;;;;5051023;28;20364;-82
2024/03/24 13:19:09;;;;;;;9.60;3.00;;;;;;;;;;5049884;28;20374;-79
2024/03/24 13:21:37;;;;;;;8.68;2.08;;;;;;;;;;5050646;28;20397;-81
2024/03/24 13:24:05;;;;;;;11.32;2.30;;;;;;;;;;5051811;28;20017;-80
2024/03/24 13:26:33;;;;;;;10.93;1.83;;;;;;;;;;5051945;28;20031;-80
2024/03/24 13:28:59;;;;;;;10.57;2.47;;;;;;;;;;5050542;28;20025;-79
2024/03/24 13:31:25;;;;;;;14.77;2.50;;;;;;;;;;5054872;28;20350;-78
2024/03/24 13:33:54;;;;;;;11.45;2.25;;;;;;;;;;5055483;28;20056;-79
2024/03/24 13:36:26;;;;;;;7.70;2.05;;;;;;;;;;5055847;28;20021;-81
2024/03/24 13:38:52;;;;;;;13.18;2.60;;;;;;;;;;5055249;28;20029;-79
2024/03/24 13:41:27;;;;;;;13.75;2.45;;;;;;;;;;5054396;28;20044;-78
2024/03/24 13:44:13;;;;;;;13.30;3.05;;;;;;;;;;5055748;28;20017;-79
2024/03/24 13:46:49;;;;;;;10.07;2.85;;;;;;;;;;5055502;28;20131;-79
2024/03/24 13:49:15;;;;;;;9.18;2.53;;;;;;;;;;5055590;28;20029;-78
2024/03/24 13:51:41;;;;;;;15.48;2.38;;;;;;;;;;5054180;28;20059;-78
2024/03/24 13:54:07;;;;;;;9.05;1.92;;;;;;;;;;5053970;28;20114;-79
2024/03/24 13:56:33;;;;;;;9.02;2.30;;;;;;;;;;5054291;28;20021;-80
2024/03/24 13:58:59;;;;;;;10.95;3.08;;;;;;;;;;5053844;28;20376;-81
2024/03/24 14:01:26;;;;;;;17.13;3.08;;;;;;;;;;5055428;28;20350;-80
2024/03/24 14:03:52;;;;;;;9.43;2.22;;;;;;;;;;5053847;28;20021;-79
2024/03/24 14:06:23;;;;;;;12.65;2.58;;;;;;;;;;5055281;28;20083;-79
2024/03/24 14:08:50;;;;;;;6.95;2.45;;;;;;;;;;5053592;28;20029;-79
2024/03/24 14:11:16;;;;;;;7.85;1.65;;;;;;;;;;5053838;28;20106;-80
2024/03/24 14:14:00;;;;;;;15.00;2.40;;;;;;;;;;5055485;28;20029;-78
2024/03/24 14:16:41;;;;;;;10.10;1.63;;;;;;;;;;5053775;28;20070;-79
2024/03/24 14:19:14;;;;;;;8.43;2.60;;;;;;;;;;5053290;28;20060;-78
2024/03/24 14:21:46;;;;;;;12.15;2.95;;;;;;;;;;5053683;28;20445;-78
2024/03/24 14:24:32;;;;;;;8.55;1.73;;;;;;;;;;5054623;28;20087;-78
2024/03/24 14:26:58;;;;;;;11.27;1.98;;;;;;;;;;5054798;28;20075;-78
2024/03/24 14:29:24;;;;;;;12.32;2.83;;;;;;;;;;5053572;28;20423;-79
2024/03/24 14:31:50;;;;;;;16.75;2.58;;;;;;;;;;5053343;28;20029;-78
2024/03/24 14:34:16;;;;;;;12.40;2.67;;;;;;;;;;5053406;28;20381;-78